Flight Track Log - Related Links

Times and Time Zones

All times are in EDT time to prevent confusion due to time zone crossing. See the EJA831 flight status page for this flight to view local times or setup timezone preferences in your user account.


Time Position Orientation Groundspeed Altitude Reporting Facility
EDT Latitude Longitude Course Direction KTS MPH feet Rate Location/Type
Tue 06:59:41 PM 40.8314 -74.1006 220° Southwest 181 208 1,100  Level New York Center
Tue 07:00:07 PM 40.8167 -74.1167 220° Southwest 180 207 1,500 1,109 Climbing New York TRACON
Tue 07:01:13 PM 40.8000 -74.1833 252° West 204 235 2,800 2,095 Climbing New York TRACON
Tue 07:02:13 PM 40.8000 -74.2667 270° West 238 274 5,900 3,700 Climbing New York TRACON
Tue 07:03:13 PM 40.7833 -74.3667 258° West 246 283 10,200 3,350 Climbing New York TRACON
Tue 07:04:13 PM 40.8500 -74.4333 323° Northwest 283 326 12,600 2,467 Climbing New York TRACON
Tue 07:04:43 PM 40.8811 -74.4625 325° Northwest 305 351 13,900 2,400 Climbing New York Center
Tue 07:05:43 PM 40.9267 -74.5364 309° West 311 358 16,200 1,590 Climbing New York Center
Tue 07:06:40 PM 40.9267 -74.6600 270° West 319 367 17,000 407 Climbing New York Center
Tue 07:07:41 PM 40.9250 -74.7725 269° West 332 382 17,000  Level New York Center
Tue 07:08:41 PM 40.9228 -74.9014 269° West 332 382 17,000 1,131 Level New York Center
Tue 07:09:43 PM 40.9206 -75.0192 269° West 324 373 19,300 2,250 Climbing New York Center
Tue 07:10:41 PM 40.9186 -75.1344 269° West 324 373 21,500 2,237 Climbing New York Center
Tue 07:11:41 PM 40.8997 -75.2458 257° West 334 384 23,700 2,200 Climbing New York Center
Tue 07:12:41 PM 40.8744 -75.3594 254° West 334 384 25,900 1,686 Climbing New York Center
Tue 07:13:42 PM 40.8469 -75.4783 253° West 339 390 27,100 1,041 Climbing New York Center
Tue 07:14:42 PM 40.8164 -75.6133 253° West 344 396 28,000 446 Climbing New York Center
Tue 07:15:43 PM 40.7836 -75.7508 253° West 371 427 28,000  Level New York Center
Tue 07:16:43 PM 40.7506 -75.8936 253° West 395 455 28,000  Level New York Center
Tue 07:17:41 PM 40.7150 -76.0361 252° West 405 466 28,000  Level New York Center
Tue 07:18:42 PM 40.6794 -76.1783 252° West 410 472 28,000  Level New York Center
Tue 07:19:43 PM 40.6728 -76.3203 267° West 396 456 28,000  Level New York Center
Tue 07:20:41 PM 40.6956 -76.4561 283° West 381 438 28,000  Level New York Center
Tue 07:21:41 PM 40.7167 -76.5811 283° West 376 433 28,000  Level New York Center
Tue 07:22:42 PM 40.7317 -76.7003 279° West 352 405 28,000  Level New York Center
Tue 07:23:43 PM 40.7506 -76.8197 282° West 345 397 28,000  Level New York Center
Tue 07:24:41 PM 40.7672 -76.9389 281° West 334 384 28,000  Level New York Center
Tue 07:25:41 PM 40.7842 -77.0528 281° West 334 384 28,000  Level New York Center
Tue 07:26:41 PM 40.8008 -77.1697 281° West 329 379 28,000  Level New York Center
Tue 07:27:42 PM 40.8156 -77.2833 280° West 324 373 28,000  Level New York Center
Tue 07:28:43 PM 40.8342 -77.3978 282° West 318 366 28,000 -497 Level New York Center
Tue 07:30:19 PM 40.8572 -77.5769 280° West 309 356 26,700 -1,000 Descending Cleveland Center
Tue 07:31:19 PM 40.8728 -77.6942 280° West 323 372 25,400 -1,350 Descending Cleveland Center
Tue 07:32:19 PM 40.8906 -77.8172 281° West 334 384 24,000 -1,350 Descending Cleveland Center
Tue 07:33:19 PM 40.9058 -77.9319 280° West 334 384 22,700 -1,000 Descending Cleveland Center
Tue 07:34:19 PM 40.8958 -78.0450 263° West 329 379 22,000 -350 Descending Cleveland Center
Tue 07:35:19 PM 40.8458 -78.1511 238° Southwest 321 369 22,000 -400 Level Cleveland Center
Tue 07:36:19 PM 40.7878 -78.2631 236° Southwest 335 386 21,200 -1,200 Descending Cleveland Center
Tue 07:37:19 PM 40.7147 -78.3614 226° Southwest 369 425 19,600 -1,800 Descending Cleveland Center
Tue 07:38:19 PM 40.6667 -78.4725 240° Southwest 369 425 17,600 -2,018 Descending Cleveland Center
Tue 07:39:09 PM 40.6250 -78.5753 242° Southwest 352 405 15,900 -2,194 Descending Cleveland Center
Tue 07:39:52 PM 40.5931 -78.6581 243° Southwest 346 398 14,200 -2,229 Descending Cleveland Center
Tue 07:40:19 PM 40.5747 -78.6914 234° Southwest 352 405 13,300 -2,100 Descending Cleveland Center
Tue 07:40:52 PM 40.5508 -78.7578 245° Southwest 324 373 12,100 -2,200 Descending Cleveland Center
Tue 07:41:19 PM 40.5347 -78.7911 238° Southwest 331 381 11,100 -2,164 Descending Cleveland Center
Tue 07:41:53 PM 40.5125 -78.8461 242° Southwest 285 328 9,900 -2,200 Descending Cleveland Center
Tue 07:42:19 PM 40.4986 -78.8794 241° Southwest 303 349 8,900 -2,400 Descending Cleveland Center
Tue 07:42:53 PM 40.4764 -78.9372 243° Southwest 258 297 7,500 -2,100 Descending Cleveland Center
Tue 07:43:19 PM 40.4664 -78.9567 236° Southwest 273 314 6,800 -1,279 Descending Cleveland Center
Tue 07:43:54 PM 40.4628 -79.0139 265° West 222 255 6,200 -1,200 Descending Cleveland Center
Tue 07:44:19 PM 40.4611 -79.0386 265° West 239 275 5,600 -1,180 Descending Cleveland Center
Tue 07:44:55 PM 40.4575 -79.0878 265° West 200 230 5,000 -1,100 Descending Cleveland Center
Tue 07:45:19 PM 40.4558 -79.1069 263° West 214 246 4,500 -500 Descending Cleveland Center
Tue 07:45:55 PM 40.4503 -79.1589 262° West 190 219 4,500  Level Cleveland Center
Tue 07:46:56 PM 40.4197 -79.2169 235° Southwest 208 239 4,500 -71 Level Cleveland Center
Tue 07:47:19 PM 40.4094 -79.2306 225° Southwest 193 222 4,400 -295 Descending Cleveland Center
Tue 07:47:57 PM 40.3828 -79.2667 226° Southwest 187 215 4,200 -700 Descending Cleveland Center
Tue 07:48:19 PM 40.3725 -79.2750 212° Southwest 193 222 3,700 -1,100 Descending Cleveland Center
Tue 07:48:57 PM 40.3478 -79.3136 230° Southwest 181 208 3,100 -909 Descending Cleveland Center
Tue 07:49:58 PM 40.3192 -79.3578 230° Southwest 181 208 2,200 -885 Descending Cleveland Center
Tue 07:51:00 PM 40.2667 -79.4000 237° Southwest  Level FlightAware Approximate

Login

Don't have an account? Register now (free) for customized features, flight alerts, and more!